Lake Center, Mississippi
Current Conditions -  °F | °C
As of 1:15 PM on Thursday 30 Oct 2014 (Local Time) from KUOX Reporting Station
Clear Clear  
Wind Chill: 64°   Ceiling: Unl
Heat Index: 64°   Visibility: 10mi
Dew Point: 36°   Wind: 3mph
Humidity: 34%   Direction: 10°N
Pressure: 30.13"   Gusts: NA
Location:  34.5725°N, 89.3417°W
Report Text: KUOX 301815Z AUTO 01003KT 10SM CLR 18/02 A3013 RMK AO2 PWINO PNO
Loading
Personal Weather Stations






























Interactive Weather Map
Tropical Storm Tracking
New forecast layout! Learn more

10-Day Weather Forecast

Advertisements
Track Severe Weather on mobile